sensor_id;sensor_type;location;lat;lon;timestamp;P1;durP1;ratioP1;P2;durP2;ratioP2
52942;SDS011;38809;53.300;6.614;2024-02-21T00:00:01;8.88;;;2.83;;
52942;SDS011;38809;53.300;6.614;2024-02-21T00:04:53;9.50;;;2.78;;
52942;SDS011;38809;53.300;6.614;2024-02-21T00:07:19;9.00;;;2.88;;
52942;SDS011;38809;53.300;6.614;2024-02-21T00:09:46;7.53;;;2.88;;
52942;SDS011;38809;53.300;6.614;2024-02-21T00:12:12;9.63;;;3.17;;
52942;SDS011;38809;53.300;6.614;2024-02-21T00:14:39;12.93;;;3.40;;
52942;SDS011;38809;53.300;6.614;2024-02-21T00:17:05;7.65;;;2.58;;
52942;SDS011;38809;53.300;6.614;2024-02-21T00:19:33;8.25;;;2.90;;
52942;SDS011;38809;53.300;6.614;2024-02-21T00:22:00;10.68;;;3.88;;
52942;SDS011;38809;53.300;6.614;2024-02-21T00:24:26;7.25;;;2.58;;
52942;SDS011;38809;53.300;6.614;2024-02-21T00:26:53;9.07;;;2.90;;
52942;SDS011;38809;53.300;6.614;2024-02-21T00:29:19;9.07;;;3.08;;
52942;SDS011;38809;53.300;6.614;2024-02-21T00:31:45;11.05;;;2.83;;
52942;SDS011;38809;53.300;6.614;2024-02-21T00:34:11;8.65;;;3.22;;
52942;SDS011;38809;53.300;6.614;2024-02-21T00:36:38;8.90;;;3.22;;
52942;SDS011;38809;53.300;6.614;2024-02-21T00:39:04;8.88;;;3.00;;
52942;SDS011;38809;53.300;6.614;2024-02-21T00:41:31;7.90;;;2.60;;
52942;SDS011;38809;53.300;6.614;2024-02-21T00:43:58;10.18;;;3.10;;
52942;SDS011;38809;53.300;6.614;2024-02-21T00:46:24;16.08;;;3.58;;
52942;SDS011;38809;53.300;6.614;2024-02-21T00:48:50;10.77;;;3.05;;
52942;SDS011;38809;53.300;6.614;2024-02-21T00:51:16;12.82;;;3.65;;
52942;SDS011;38809;53.300;6.614;2024-02-21T00:53:42;10.82;;;3.25;;
52942;SDS011;38809;53.300;6.614;2024-02-21T00:56:08;10.00;;;3.00;;
52942;SDS011;38809;53.300;6.614;2024-02-21T00:58:35;10.43;;;3.60;;
52942;SDS011;38809;53.300;6.614;2024-02-21T01:01:01;13.65;;;3.95;;
52942;SDS011;38809;53.300;6.614;2024-02-21T01:03:28;11.55;;;4.35;;
52942;SDS011;38809;53.300;6.614;2024-02-21T01:05:54;12.35;;;3.50;;
52942;SDS011;38809;53.300;6.614;2024-02-21T01:08:20;12.13;;;3.55;;
52942;SDS011;38809;53.300;6.614;2024-02-21T01:10:46;9.63;;;4.10;;
52942;SDS011;38809;53.300;6.614;2024-02-21T01:13:12;13.75;;;4.22;;
52942;SDS011;38809;53.300;6.614;2024-02-21T01:18:05;13.70;;;4.15;;
52942;SDS011;38809;53.300;6.614;2024-02-21T01:20:31;11.07;;;4.60;;
52942;SDS011;38809;53.300;6.614;2024-02-21T01:22:57;8.63;;;3.28;;
52942;SDS011;38809;53.300;6.614;2024-02-21T01:25:23;8.57;;;3.83;;
52942;SDS011;38809;53.300;6.614;2024-02-21T01:27:49;11.25;;;4.35;;
52942;SDS011;38809;53.300;6.614;2024-02-21T01:30:16;16.25;;;4.63;;
52942;SDS011;38809;53.300;6.614;2024-02-21T01:32:43;20.77;;;5.43;;
52942;SDS011;38809;53.300;6.614;2024-02-21T01:35:09;14.57;;;4.90;;
52942;SDS011;38809;53.300;6.614;2024-02-21T01:37:35;8.88;;;3.92;;
52942;SDS011;38809;53.300;6.614;2024-02-21T01:40:01;12.50;;;4.53;;
52942;SDS011;38809;53.300;6.614;2024-02-21T01:42:28;14.52;;;4.93;;
52942;SDS011;38809;53.300;6.614;2024-02-21T01:44:54;13.43;;;4.40;;
52942;SDS011;38809;53.300;6.614;2024-02-21T01:47:20;15.70;;;4.72;;
52942;SDS011;38809;53.300;6.614;2024-02-21T01:49:46;12.85;;;3.85;;
52942;SDS011;38809;53.300;6.614;2024-02-21T01:52:14;10.63;;;4.03;;
52942;SDS011;38809;53.300;6.614;2024-02-21T01:54:42;12.05;;;3.70;;
52942;SDS011;38809;53.300;6.614;2024-02-21T01:57:08;11.70;;;3.40;;
52942;SDS011;38809;53.300;6.614;2024-02-21T01:59:34;7.72;;;3.35;;
52942;SDS011;38809;53.300;6.614;2024-02-21T02:02:00;8.63;;;3.22;;
52942;SDS011;38809;53.300;6.614;2024-02-21T02:04:27;9.77;;;3.42;;
52942;SDS011;38809;53.300;6.614;2024-02-21T02:06:54;10.40;;;3.20;;
52942;SDS011;38809;53.300;6.614;2024-02-21T02:09:21;6.82;;;3.17;;
52942;SDS011;38809;53.300;6.614;2024-02-21T02:11:47;6.28;;;3.47;;
52942;SDS011;38809;53.300;6.614;2024-02-21T02:14:13;6.40;;;2.92;;
52942;SDS011;38809;53.300;6.614;2024-02-21T02:16:39;9.32;;;3.58;;
52942;SDS011;38809;53.300;6.614;2024-02-21T02:19:05;9.10;;;3.30;;
52942;SDS011;38809;53.300;6.614;2024-02-21T02:21:34;9.05;;;3.22;;
52942;SDS011;38809;53.300;6.614;2024-02-21T02:24:04;7.32;;;3.28;;
52942;SDS011;38809;53.300;6.614;2024-02-21T02:26:30;8.48;;;3.70;;
52942;SDS011;38809;53.300;6.614;2024-02-21T02:28:56;8.80;;;4.00;;
52942;SDS011;38809;53.300;6.614;2024-02-21T02:31:22;6.93;;;3.75;;
52942;SDS011;38809;53.300;6.614;2024-02-21T02:33:48;10.55;;;4.38;;
52942;SDS011;38809;53.300;6.614;2024-02-21T02:38:42;11.10;;;4.57;;
52942;SDS011;38809;53.300;6.614;2024-02-21T02:41:08;10.32;;;4.78;;
52942;SDS011;38809;53.300;6.614;2024-02-21T02:43:35;12.35;;;4.32;;
52942;SDS011;38809;53.300;6.614;2024-02-21T02:46:02;8.30;;;4.57;;
52942;SDS011;38809;53.300;6.614;2024-02-21T02:48:28;15.15;;;4.85;;
52942;SDS011;38809;53.300;6.614;2024-02-21T02:50:55;12.20;;;4.80;;
52942;SDS011;38809;53.300;6.614;2024-02-21T02:53:21;14.60;;;4.95;;
52942;SDS011;38809;53.300;6.614;2024-02-21T02:55:47;14.63;;;4.45;;
52942;SDS011;38809;53.300;6.614;2024-02-21T02:58:13;15.60;;;5.25;;
52942;SDS011;38809;53.300;6.614;2024-02-21T03:00:39;12.32;;;5.15;;
52942;SDS011;38809;53.300;6.614;2024-02-21T03:03:05;8.95;;;4.40;;
52942;SDS011;38809;53.300;6.614;2024-02-21T03:05:33;13.20;;;4.93;;
52942;SDS011;38809;53.300;6.614;2024-02-21T03:07:59;12.20;;;5.05;;
52942;SDS011;38809;53.300;6.614;2024-02-21T03:10:25;10.93;;;4.60;;
52942;SDS011;38809;53.300;6.614;2024-02-21T03:12:51;10.30;;;4.35;;
52942;SDS011;38809;53.300;6.614;2024-02-21T03:15:18;13.65;;;4.55;;
52942;SDS011;38809;53.300;6.614;2024-02-21T03:17:45;13.13;;;4.70;;
52942;SDS011;38809;53.300;6.614;2024-02-21T03:20:11;19.02;;;5.10;;
52942;SDS011;38809;53.300;6.614;2024-02-21T03:22:38;16.63;;;5.32;;
52942;SDS011;38809;53.300;6.614;2024-02-21T03:25:04;14.27;;;4.78;;
52942;SDS011;38809;53.300;6.614;2024-02-21T03:27:31;13.90;;;4.57;;
52942;SDS011;38809;53.300;6.614;2024-02-21T03:29:57;14.80;;;4.57;;
52942;SDS011;38809;53.300;6.614;2024-02-21T03:32:23;14.38;;;5.40;;
52942;SDS011;38809;53.300;6.614;2024-02-21T03:34:50;15.27;;;4.63;;
52942;SDS011;38809;53.300;6.614;2024-02-21T03:37:16;11.23;;;4.68;;
52942;SDS011;38809;53.300;6.614;2024-02-21T03:39:42;17.30;;;4.72;;
52942;SDS011;38809;53.300;6.614;2024-02-21T03:42:08;16.45;;;4.75;;
52942;SDS011;38809;53.300;6.614;2024-02-21T03:44:34;12.73;;;3.92;;
52942;SDS011;38809;53.300;6.614;2024-02-21T03:47:00;15.75;;;4.57;;
52942;SDS011;38809;53.300;6.614;2024-02-21T03:49:27;15.93;;;5.07;;
52942;SDS011;38809;53.300;6.614;2024-02-21T03:51:53;17.10;;;4.88;;
52942;SDS011;38809;53.300;6.614;2024-02-21T03:54:20;13.32;;;4.03;;
52942;SDS011;38809;53.300;6.614;2024-02-21T03:56:46;17.08;;;5.10;;
52942;SDS011;38809;53.300;6.614;2024-02-21T03:59:14;15.52;;;4.32;;
52942;SDS011;38809;53.300;6.614;2024-02-21T04:01:40;16.42;;;5.80;;
52942;SDS011;38809;53.300;6.614;2024-02-21T04:04:06;16.90;;;5.00;;
52942;SDS011;38809;53.300;6.614;2024-02-21T04:06:32;17.50;;;5.20;;
52942;SDS011;38809;53.300;6.614;2024-02-21T04:08:58;20.75;;;4.90;;
52942;SDS011;38809;53.300;6.614;2024-02-21T04:11:24;20.75;;;5.88;;
52942;SDS011;38809;53.300;6.614;2024-02-21T04:13:51;15.45;;;5.00;;
52942;SDS011;38809;53.300;6.614;2024-02-21T04:16:17;14.40;;;4.70;;
52942;SDS011;38809;53.300;6.614;2024-02-21T04:18:43;13.25;;;5.00;;
52942;SDS011;38809;53.300;6.614;2024-02-21T04:21:10;17.40;;;5.43;;
52942;SDS011;38809;53.300;6.614;2024-02-21T04:23:36;16.70;;;5.57;;
52942;SDS011;38809;53.300;6.614;2024-02-21T04:26:02;15.43;;;4.80;;
52942;SDS011;38809;53.300;6.614;2024-02-21T04:28:28;13.60;;;4.32;;
52942;SDS011;38809;53.300;6.614;2024-02-21T04:30:54;15.63;;;5.80;;
52942;SDS011;38809;53.300;6.614;2024-02-21T04:33:20;21.40;;;6.03;;
52942;SDS011;38809;53.300;6.614;2024-02-21T04:35:46;17.48;;;5.90;;
52942;SDS011;38809;53.300;6.614;2024-02-21T04:38:12;16.23;;;5.57;;
52942;SDS011;38809;53.300;6.614;2024-02-21T04:40:39;18.25;;;5.95;;
52942;SDS011;38809;53.300;6.614;2024-02-21T04:43:06;15.18;;;5.50;;
52942;SDS011;38809;53.300;6.614;2024-02-21T04:45:32;15.80;;;6.00;;
52942;SDS011;38809;53.300;6.614;2024-02-21T04:47:58;13.88;;;5.20;;
52942;SDS011;38809;53.300;6.614;2024-02-21T04:50:24;18.48;;;5.50;;
52942;SDS011;38809;53.300;6.614;2024-02-21T04:52:50;16.48;;;5.63;;
52942;SDS011;38809;53.300;6.614;2024-02-21T04:55:16;16.38;;;5.00;;
52942;SDS011;38809;53.300;6.614;2024-02-21T04:57:42;18.55;;;4.65;;
52942;SDS011;38809;53.300;6.614;2024-02-21T05:00:08;15.40;;;4.75;;
52942;SDS011;38809;53.300;6.614;2024-02-21T05:02:35;12.10;;;4.50;;
52942;SDS011;38809;53.300;6.614;2024-02-21T05:05:02;15.30;;;4.53;;
52942;SDS011;38809;53.300;6.614;2024-02-21T05:07:28;14.75;;;5.40;;
52942;SDS011;38809;53.300;6.614;2024-02-21T05:09:54;13.20;;;4.43;;
52942;SDS011;38809;53.300;6.614;2024-02-21T05:12:20;15.55;;;6.10;;
52942;SDS011;38809;53.300;6.614;2024-02-21T05:14:46;15.25;;;4.38;;
52942;SDS011;38809;53.300;6.614;2024-02-21T05:19:39;13.35;;;4.68;;
52942;SDS011;38809;53.300;6.614;2024-02-21T05:22:05;13.48;;;4.40;;
52942;SDS011;38809;53.300;6.614;2024-02-21T05:24:31;11.95;;;4.45;;
52942;SDS011;38809;53.300;6.614;2024-02-21T05:26:57;13.68;;;4.50;;
52942;SDS011;38809;53.300;6.614;2024-02-21T05:29:23;16.08;;;5.30;;
52942;SDS011;38809;53.300;6.614;2024-02-21T05:34:19;10.70;;;3.92;;
52942;SDS011;38809;53.300;6.614;2024-02-21T05:36:45;11.48;;;4.38;;
52942;SDS011;38809;53.300;6.614;2024-02-21T05:39:12;10.50;;;4.03;;
52942;SDS011;38809;53.300;6.614;2024-02-21T05:41:39;12.48;;;4.68;;
52942;SDS011;38809;53.300;6.614;2024-02-21T05:44:05;16.25;;;4.32;;
52942;SDS011;38809;53.300;6.614;2024-02-21T05:46:31;14.10;;;5.50;;
52942;SDS011;38809;53.300;6.614;2024-02-21T05:48:57;16.45;;;4.70;;
52942;SDS011;38809;53.300;6.614;2024-02-21T05:51:24;14.52;;;5.07;;
52942;SDS011;38809;53.300;6.614;2024-02-21T05:53:50;14.25;;;4.70;;
52942;SDS011;38809;53.300;6.614;2024-02-21T05:56:16;14.52;;;4.88;;
52942;SDS011;38809;53.300;6.614;2024-02-21T05:58:45;11.82;;;4.32;;
52942;SDS011;38809;53.300;6.614;2024-02-21T06:01:11;14.07;;;4.40;;
52942;SDS011;38809;53.300;6.614;2024-02-21T06:03:37;19.55;;;5.18;;
52942;SDS011;38809;53.300;6.614;2024-02-21T06:06:03;16.90;;;5.22;;
52942;SDS011;38809;53.300;6.614;2024-02-21T06:08:30;16.33;;;5.07;;
52942;SDS011;38809;53.300;6.614;2024-02-21T06:10:56;13.57;;;4.88;;
52942;SDS011;38809;53.300;6.614;2024-02-21T06:13:23;13.70;;;4.63;;
52942;SDS011;38809;53.300;6.614;2024-02-21T06:15:49;17.20;;;5.90;;
52942;SDS011;38809;53.300;6.614;2024-02-21T06:18:19;13.10;;;4.60;;
52942;SDS011;38809;53.300;6.614;2024-02-21T06:20:45;12.32;;;4.88;;
52942;SDS011;38809;53.300;6.614;2024-02-21T06:25:38;21.90;;;5.03;;
52942;SDS011;38809;53.300;6.614;2024-02-21T06:28:05;13.98;;;5.03;;
52942;SDS011;38809;53.300;6.614;2024-02-21T06:32:57;18.25;;;5.60;;
52942;SDS011;38809;53.300;6.614;2024-02-21T06:35:24;11.30;;;5.05;;
52942;SDS011;38809;53.300;6.614;2024-02-21T06:37:51;13.90;;;5.70;;
52942;SDS011;38809;53.300;6.614;2024-02-21T06:40:17;15.02;;;5.32;;
52942;SDS011;38809;53.300;6.614;2024-02-21T06:42:44;16.77;;;5.68;;
52942;SDS011;38809;53.300;6.614;2024-02-21T06:45:10;17.80;;;5.22;;
52942;SDS011;38809;53.300;6.614;2024-02-21T06:47:36;14.93;;;5.95;;
52942;SDS011;38809;53.300;6.614;2024-02-21T06:52:28;20.73;;;5.50;;
52942;SDS011;38809;53.300;6.614;2024-02-21T06:54:56;15.88;;;5.75;;
52942;SDS011;38809;53.300;6.614;2024-02-21T06:57:22;14.77;;;5.65;;
52942;SDS011;38809;53.300;6.614;2024-02-21T06:59:48;14.55;;;6.30;;
52942;SDS011;38809;53.300;6.614;2024-02-21T07:02:14;18.17;;;5.80;;
52942;SDS011;38809;53.300;6.614;2024-02-21T07:04:41;18.70;;;6.88;;
52942;SDS011;38809;53.300;6.614;2024-02-21T07:07:07;16.05;;;6.35;;
52942;SDS011;38809;53.300;6.614;2024-02-21T07:09:33;12.95;;;5.97;;
52942;SDS011;38809;53.300;6.614;2024-02-21T07:11:59;17.50;;;6.53;;
52942;SDS011;38809;53.300;6.614;2024-02-21T07:14:28;14.52;;;6.63;;
52942;SDS011;38809;53.300;6.614;2024-02-21T07:16:54;16.52;;;6.30;;
52942;SDS011;38809;53.300;6.614;2024-02-21T07:19:22;14.82;;;6.35;;
52942;SDS011;38809;53.300;6.614;2024-02-21T07:21:48;18.95;;;6.85;;
52942;SDS011;38809;53.300;6.614;2024-02-21T07:24:14;13.95;;;6.50;;
52942;SDS011;38809;53.300;6.614;2024-02-21T07:26:41;17.33;;;6.80;;
52942;SDS011;38809;53.300;6.614;2024-02-21T07:29:08;20.10;;;7.20;;
52942;SDS011;38809;53.300;6.614;2024-02-21T07:31:43;17.95;;;7.13;;
52942;SDS011;38809;53.300;6.614;2024-02-21T07:34:10;17.73;;;7.65;;
52942;SDS011;38809;53.300;6.614;2024-02-21T07:39:03;13.52;;;6.93;;
52942;SDS011;38809;53.300;6.614;2024-02-21T07:41:30;14.77;;;6.85;;
52942;SDS011;38809;53.300;6.614;2024-02-21T07:46:22;21.10;;;8.25;;
52942;SDS011;38809;53.300;6.614;2024-02-21T07:48:49;17.92;;;8.07;;
52942;SDS011;38809;53.300;6.614;2024-02-21T07:51:15;19.73;;;8.45;;
52942;SDS011;38809;53.300;6.614;2024-02-21T07:53:44;26.55;;;9.57;;
52942;SDS011;38809;53.300;6.614;2024-02-21T07:56:14;23.52;;;10.35;;
52942;SDS011;38809;53.300;6.614;2024-02-21T07:58:41;25.83;;;10.95;;
52942;SDS011;38809;53.300;6.614;2024-02-21T08:01:07;23.20;;;10.93;;
52942;SDS011;38809;53.300;6.614;2024-02-21T08:03:34;23.27;;;10.95;;
52942;SDS011;38809;53.300;6.614;2024-02-21T08:06:00;24.17;;;10.95;;
52942;SDS011;38809;53.300;6.614;2024-02-21T08:08:26;26.75;;;11.95;;
52942;SDS011;38809;53.300;6.614;2024-02-21T08:10:53;23.83;;;10.63;;
52942;SDS011;38809;53.300;6.614;2024-02-21T08:13:19;29.92;;;10.68;;
52942;SDS011;38809;53.300;6.614;2024-02-21T08:15:46;24.88;;;9.93;;
52942;SDS011;38809;53.300;6.614;2024-02-21T08:18:12;21.98;;;9.18;;
52942;SDS011;38809;53.300;6.614;2024-02-21T08:20:38;23.88;;;9.40;;
52942;SDS011;38809;53.300;6.614;2024-02-21T08:23:04;23.17;;;9.73;;
52942;SDS011;38809;53.300;6.614;2024-02-21T08:25:30;18.25;;;7.28;;
52942;SDS011;38809;53.300;6.614;2024-02-21T08:27:59;21.60;;;7.30;;
52942;SDS011;38809;53.300;6.614;2024-02-21T08:30:25;13.13;;;6.40;;
52942;SDS011;38809;53.300;6.614;2024-02-21T08:32:52;14.80;;;6.57;;
52942;SDS011;38809;53.300;6.614;2024-02-21T08:35:19;19.35;;;7.07;;
52942;SDS011;38809;53.300;6.614;2024-02-21T08:37:48;14.80;;;5.90;;
52942;SDS011;38809;53.300;6.614;2024-02-21T08:40:15;14.88;;;5.53;;
52942;SDS011;38809;53.300;6.614;2024-02-21T08:42:46;11.15;;;5.13;;
52942;SDS011;38809;53.300;6.614;2024-02-21T08:45:12;14.32;;;5.82;;
52942;SDS011;38809;53.300;6.614;2024-02-21T08:47:41;10.18;;;5.40;;
52942;SDS011;38809;53.300;6.614;2024-02-21T08:50:08;12.50;;;5.57;;
52942;SDS011;38809;53.300;6.614;2024-02-21T08:52:37;16.75;;;5.78;;
52942;SDS011;38809;53.300;6.614;2024-02-21T08:55:03;14.90;;;5.93;;
52942;SDS011;38809;53.300;6.614;2024-02-21T08:57:30;17.10;;;5.70;;
52942;SDS011;38809;53.300;6.614;2024-02-21T09:00:02;10.23;;;5.15;;
52942;SDS011;38809;53.300;6.614;2024-02-21T09:02:34;12.10;;;5.05;;
52942;SDS011;38809;53.300;6.614;2024-02-21T09:07:27;15.88;;;5.95;;
52942;SDS011;38809;53.300;6.614;2024-02-21T09:09:53;11.13;;;5.78;;
52942;SDS011;38809;53.300;6.614;2024-02-21T09:12:19;11.10;;;6.22;;
52942;SDS011;38809;53.300;6.614;2024-02-21T09:14:45;13.60;;;6.30;;
52942;SDS011;38809;53.300;6.614;2024-02-21T09:17:14;12.52;;;6.78;;
52942;SDS011;38809;53.300;6.614;2024-02-21T09:19:42;14.23;;;6.80;;
52942;SDS011;38809;53.300;6.614;2024-02-21T09:22:08;12.45;;;7.13;;
52942;SDS011;38809;53.300;6.614;2024-02-21T09:24:34;16.83;;;8.00;;
52942;SDS011;38809;53.300;6.614;2024-02-21T09:27:00;18.25;;;8.85;;
52942;SDS011;38809;53.300;6.614;2024-02-21T09:29:26;14.27;;;8.00;;
52942;SDS011;38809;53.300;6.614;2024-02-21T09:31:53;16.38;;;8.02;;
52942;SDS011;38809;53.300;6.614;2024-02-21T09:34:19;16.65;;;8.80;;
52942;SDS011;38809;53.300;6.614;2024-02-21T09:36:45;17.17;;;8.85;;
52942;SDS011;38809;53.300;6.614;2024-02-21T09:39:11;10.32;;;7.72;;
52942;SDS011;38809;53.300;6.614;2024-02-21T09:41:41;14.57;;;9.27;;
52942;SDS011;38809;53.300;6.614;2024-02-21T09:44:09;19.08;;;10.82;;
52942;SDS011;38809;53.300;6.614;2024-02-21T09:51:43;16.67;;;10.15;;
52942;SDS011;38809;53.300;6.614;2024-02-21T09:54:10;20.73;;;11.70;;
52942;SDS011;38809;53.300;6.614;2024-02-21T09:56:37;17.55;;;11.15;;
52942;SDS011;38809;53.300;6.614;2024-02-21T09:59:03;17.90;;;11.43;;
52942;SDS011;38809;53.300;6.614;2024-02-21T10:01:30;18.13;;;12.23;;
52942;SDS011;38809;53.300;6.614;2024-02-21T10:03:57;17.20;;;11.50;;
52942;SDS011;38809;53.300;6.614;2024-02-21T10:06:23;16.20;;;10.70;;
52942;SDS011;38809;53.300;6.614;2024-02-21T10:08:53;16.55;;;10.50;;
52942;SDS011;38809;53.300;6.614;2024-02-21T10:11:25;15.73;;;10.38;;
52942;SDS011;38809;53.300;6.614;2024-02-21T10:14:02;18.38;;;10.98;;
52942;SDS011;38809;53.300;6.614;2024-02-21T10:16:31;17.58;;;11.85;;
52942;SDS011;38809;53.300;6.614;2024-02-21T10:18:58;16.10;;;10.38;;
52942;SDS011;38809;53.300;6.614;2024-02-21T10:21:24;17.55;;;10.45;;
52942;SDS011;38809;53.300;6.614;2024-02-21T10:23:51;19.33;;;12.60;;
52942;SDS011;38809;53.300;6.614;2024-02-21T10:26:18;19.40;;;10.90;;
52942;SDS011;38809;53.300;6.614;2024-02-21T10:28:44;17.92;;;11.32;;
52942;SDS011;38809;53.300;6.614;2024-02-21T10:31:20;16.10;;;11.68;;
52942;SDS011;38809;53.300;6.614;2024-02-21T10:33:53;16.83;;;10.52;;
52942;SDS011;38809;53.300;6.614;2024-02-21T10:36:20;17.02;;;11.02;;
52942;SDS011;38809;53.300;6.614;2024-02-21T10:38:46;17.00;;;11.73;;
52942;SDS011;38809;53.300;6.614;2024-02-21T10:41:13;16.33;;;11.18;;
52942;SDS011;38809;53.300;6.614;2024-02-21T10:43:43;18.20;;;11.70;;
52942;SDS011;38809;53.300;6.614;2024-02-21T10:46:12;19.05;;;11.60;;
52942;SDS011;38809;53.300;6.614;2024-02-21T10:48:41;14.85;;;11.15;;
52942;SDS011;38809;53.300;6.614;2024-02-21T10:51:15;19.40;;;12.27;;
52942;SDS011;38809;53.300;6.614;2024-02-21T10:56:30;23.45;;;13.73;;
52942;SDS011;38809;53.300;6.614;2024-02-21T10:59:00;18.13;;;12.23;;
52942;SDS011;38809;53.300;6.614;2024-02-21T11:01:30;19.27;;;13.75;;
52942;SDS011;38809;53.300;6.614;2024-02-21T11:03:58;21.80;;;13.82;;
52942;SDS011;38809;53.300;6.614;2024-02-21T11:06:24;23.35;;;14.57;;
52942;SDS011;38809;53.300;6.614;2024-02-21T11:09:09;17.45;;;12.55;;
52942;SDS011;38809;53.300;6.614;2024-02-21T11:11:36;23.90;;;14.68;;
52942;SDS011;38809;53.300;6.614;2024-02-21T11:14:06;18.02;;;13.02;;
52942;SDS011;38809;53.300;6.614;2024-02-21T11:16:36;18.05;;;13.90;;
52942;SDS011;38809;53.300;6.614;2024-02-21T11:19:08;18.83;;;13.63;;
52942;SDS011;38809;53.300;6.614;2024-02-21T11:21:36;21.13;;;14.27;;
52942;SDS011;38809;53.300;6.614;2024-02-21T11:24:03;21.15;;;14.13;;
52942;SDS011;38809;53.300;6.614;2024-02-21T11:26:29;18.75;;;13.85;;
52942;SDS011;38809;53.300;6.614;2024-02-21T11:29:00;16.80;;;12.70;;
52942;SDS011;38809;53.300;6.614;2024-02-21T11:31:27;19.67;;;14.27;;
52942;SDS011;38809;53.300;6.614;2024-02-21T11:34:04;18.50;;;13.90;;
52942;SDS011;38809;53.300;6.614;2024-02-21T11:36:30;16.80;;;12.65;;
52942;SDS011;38809;53.300;6.614;2024-02-21T11:39:02;17.77;;;13.68;;
52942;SDS011;38809;53.300;6.614;2024-02-21T11:41:29;18.27;;;12.75;;
52942;SDS011;38809;53.300;6.614;2024-02-21T11:43:55;18.25;;;13.77;;
52942;SDS011;38809;53.300;6.614;2024-02-21T11:46:21;16.70;;;12.40;;
52942;SDS011;38809;53.300;6.614;2024-02-21T11:51:24;16.00;;;11.82;;
52942;SDS011;38809;53.300;6.614;2024-02-21T11:53:52;17.20;;;12.27;;
52942;SDS011;38809;53.300;6.614;2024-02-21T11:56:18;18.55;;;11.30;;
52942;SDS011;38809;53.300;6.614;2024-02-21T11:58:48;15.18;;;11.07;;
52942;SDS011;38809;53.300;6.614;2024-02-21T12:01:14;15.13;;;10.57;;
52942;SDS011;38809;53.300;6.614;2024-02-21T12:03:42;15.45;;;10.88;;
52942;SDS011;38809;53.300;6.614;2024-02-21T12:06:14;14.35;;;10.88;;
52942;SDS011;38809;53.300;6.614;2024-02-21T12:08:44;14.57;;;11.20;;
52942;SDS011;38809;53.300;6.614;2024-02-21T12:11:20;13.57;;;9.98;;
52942;SDS011;38809;53.300;6.614;2024-02-21T12:13:47;13.57;;;10.32;;
52942;SDS011;38809;53.300;6.614;2024-02-21T12:16:15;13.07;;;9.90;;
52942;SDS011;38809;53.300;6.614;2024-02-21T12:18:43;13.07;;;10.10;;
52942;SDS011;38809;53.300;6.614;2024-02-21T12:21:09;12.35;;;9.48;;
52942;SDS011;38809;53.300;6.614;2024-02-21T12:23:37;13.20;;;10.02;;
52942;SDS011;38809;53.300;6.614;2024-02-21T12:26:04;15.60;;;9.45;;
52942;SDS011;38809;53.300;6.614;2024-02-21T12:28:30;13.75;;;8.80;;
52942;SDS011;38809;53.300;6.614;2024-02-21T12:30:57;11.80;;;8.85;;
52942;SDS011;38809;53.300;6.614;2024-02-21T12:33:23;11.32;;;8.73;;
52942;SDS011;38809;53.300;6.614;2024-02-21T12:35:49;12.20;;;8.30;;
52942;SDS011;38809;53.300;6.614;2024-02-21T12:38:15;13.38;;;8.93;;
52942;SDS011;38809;53.300;6.614;2024-02-21T12:40:43;12.98;;;8.60;;
52942;SDS011;38809;53.300;6.614;2024-02-21T12:43:09;11.18;;;8.10;;
52942;SDS011;38809;53.300;6.614;2024-02-21T12:45:35;12.20;;;7.75;;
52942;SDS011;38809;53.300;6.614;2024-02-21T12:48:02;11.23;;;7.78;;
52942;SDS011;38809;53.300;6.614;2024-02-21T12:50:29;14.63;;;8.35;;
52942;SDS011;38809;53.300;6.614;2024-02-21T12:52:56;16.55;;;8.93;;
52942;SDS011;38809;53.300;6.614;2024-02-21T12:55:23;13.85;;;7.63;;
52942;SDS011;38809;53.300;6.614;2024-02-21T13:00:16;12.48;;;7.78;;
52942;SDS011;38809;53.300;6.614;2024-02-21T13:05:08;10.93;;;7.15;;
52942;SDS011;38809;53.300;6.614;2024-02-21T13:07:34;10.38;;;7.35;;
52942;SDS011;38809;53.300;6.614;2024-02-21T13:10:00;12.00;;;7.50;;
52942;SDS011;38809;53.300;6.614;2024-02-21T13:12:26;11.80;;;7.18;;
52942;SDS011;38809;53.300;6.614;2024-02-21T13:14:53;12.15;;;8.02;;
52942;SDS011;38809;53.300;6.614;2024-02-21T13:17:19;10.65;;;6.88;;
52942;SDS011;38809;53.300;6.614;2024-02-21T13:19:47;8.48;;;6.32;;
52942;SDS011;38809;53.300;6.614;2024-02-21T13:22:13;8.32;;;5.93;;
52942;SDS011;38809;53.300;6.614;2024-02-21T13:24:39;10.32;;;6.82;;
52942;SDS011;38809;53.300;6.614;2024-02-21T13:27:05;8.90;;;6.30;;
52942;SDS011;38809;53.300;6.614;2024-02-21T13:29:31;8.90;;;6.03;;
52942;SDS011;38809;53.300;6.614;2024-02-21T13:34:24;10.43;;;6.43;;
52942;SDS011;38809;53.300;6.614;2024-02-21T13:36:50;10.75;;;6.03;;
52942;SDS011;38809;53.300;6.614;2024-02-21T13:39:16;11.85;;;6.28;;
52942;SDS011;38809;53.300;6.614;2024-02-21T13:41:44;8.55;;;5.45;;
52942;SDS011;38809;53.300;6.614;2024-02-21T13:44:11;8.98;;;6.13;;
52942;SDS011;38809;53.300;6.614;2024-02-21T13:46:38;9.25;;;5.80;;
52942;SDS011;38809;53.300;6.614;2024-02-21T13:49:04;7.90;;;5.68;;
52942;SDS011;38809;53.300;6.614;2024-02-21T13:51:34;8.90;;;5.63;;
52942;SDS011;38809;53.300;6.614;2024-02-21T13:54:04;7.82;;;5.55;;
52942;SDS011;38809;53.300;6.614;2024-02-21T13:56:30;9.30;;;6.22;;
52942;SDS011;38809;53.300;6.614;2024-02-21T13:58:57;8.57;;;5.47;;
52942;SDS011;38809;53.300;6.614;2024-02-21T14:01:25;12.30;;;5.32;;
52942;SDS011;38809;53.300;6.614;2024-02-21T14:03:53;9.50;;;5.68;;
52942;SDS011;38809;53.300;6.614;2024-02-21T14:06:19;7.53;;;4.88;;
52942;SDS011;38809;53.300;6.614;2024-02-21T14:11:11;6.43;;;4.70;;
52942;SDS011;38809;53.300;6.614;2024-02-21T14:13:39;6.28;;;4.68;;
52942;SDS011;38809;53.300;6.614;2024-02-21T14:16:09;5.85;;;4.88;;
52942;SDS011;38809;53.300;6.614;2024-02-21T14:18:38;6.03;;;4.97;;
52942;SDS011;38809;53.300;6.614;2024-02-21T14:21:07;6.60;;;4.80;;
52942;SDS011;38809;53.300;6.614;2024-02-21T14:23:35;6.05;;;4.45;;
52942;SDS011;38809;53.300;6.614;2024-02-21T14:26:02;8.65;;;5.10;;
52942;SDS011;38809;53.300;6.614;2024-02-21T14:28:28;5.78;;;5.03;;
52942;SDS011;38809;53.300;6.614;2024-02-21T14:30:54;7.10;;;4.40;;
52942;SDS011;38809;53.300;6.614;2024-02-21T14:33:28;6.85;;;5.13;;
52942;SDS011;38809;53.300;6.614;2024-02-21T14:35:56;7.38;;;4.90;;
52942;SDS011;38809;53.300;6.614;2024-02-21T14:38:22;7.72;;;5.07;;
52942;SDS011;38809;53.300;6.614;2024-02-21T14:40:48;6.10;;;4.75;;
52942;SDS011;38809;53.300;6.614;2024-02-21T14:43:14;6.75;;;5.00;;
52942;SDS011;38809;53.300;6.614;2024-02-21T14:45:40;5.97;;;4.57;;
52942;SDS011;38809;53.300;6.614;2024-02-21T14:48:08;6.97;;;4.90;;
52942;SDS011;38809;53.300;6.614;2024-02-21T14:50:34;6.82;;;4.57;;
52942;SDS011;38809;53.300;6.614;2024-02-21T14:53:00;7.18;;;5.13;;
52942;SDS011;38809;53.300;6.614;2024-02-21T14:55:26;7.05;;;4.55;;
52942;SDS011;38809;53.300;6.614;2024-02-21T14:57:52;7.63;;;5.15;;
52942;SDS011;38809;53.300;6.614;2024-02-21T15:00:18;6.88;;;5.15;;
52942;SDS011;38809;53.300;6.614;2024-02-21T15:02:46;7.25;;;5.18;;
52942;SDS011;38809;53.300;6.614;2024-02-21T15:05:12;6.20;;;5.13;;
52942;SDS011;38809;53.300;6.614;2024-02-21T15:07:39;7.60;;;5.75;;
52942;SDS011;38809;53.300;6.614;2024-02-21T15:10:05;7.47;;;5.50;;
52942;SDS011;38809;53.300;6.614;2024-02-21T15:12:31;7.00;;;4.65;;
52942;SDS011;38809;53.300;6.614;2024-02-21T15:14:57;9.00;;;5.40;;
52942;SDS011;38809;53.300;6.614;2024-02-21T15:17:24;6.80;;;5.07;;
52942;SDS011;38809;53.300;6.614;2024-02-21T15:22:20;7.43;;;5.10;;